Nearby METAR Reports

 

KGIF - Winter Haven, Florida, USA
Distance from station: SW 11mi, 18km
Updated: Mon, 28-Nov-2022 12:00am EST
Partly cloudy
Partly cloudy
 Wind from WNW
Wind: WNW 7 mph , 11 km/h
Temperature: 70°F , 21°C
Dew Point: 66°F , 19°C
Humidity: 88%
Barometer: 30.02 inHg , 1016.6 hPa
Clouds: Partly cloudy
Visibility: 10 miles , 16 km
Cloud details: Partly cloudy 400 ft
Partly cloudy 900 ft
2022/11/28 05:00 KGIF 280500Z AUTO 29006KT 10SM SCT004 SCT009 21/19 A3002 RMK AO2 T02110194
KISM - Kissimmee/Orland, Florida, USA
Distance from station: NE 13mi, 22km
Updated: Mon, 28-Nov-2022 12:19am EST
Partly cloudy
Partly cloudy
 Wind from WNW
Wind: WNW 5 mph , 7 km/h
Temperature: 70°F , 21°C
Dew Point: 68°F , 20°C
Humidity: 94%
Barometer: 30.01 inHg , 1016.3 hPa
Clouds: Partly cloudy
Visibility: 10 miles , 16 km
Cloud details: Partly cloudy 800 ft
2022/11/28 05:19 KISM 280519Z AUTO 30004KT 10SM SCT008 21/20 A3001 RMK AO2 PNO $
 
KBOW - Bartow Municipal, Florida, USA
Distance from station: SSW 19mi, 31km
Updated: Mon, 28-Nov-2022 12:15am EST
Overcast
Overcast
 Wind from WNW
Wind: WNW 7 mph , 11 km/h
Temperature: 70°F , 21°C
Dew Point: 68°F , 20°C
Humidity: 94%
Barometer: 30.01 inHg , 1016.3 hPa
Clouds: Overcast
Visibility: 10 miles , 16 km
Cloud details: Overcast 500 ft
2022/11/28 05:15 KBOW 280515Z AUTO 30006KT 10SM OVC005 21/20 A3001 RMK AO2
KMCO - Orlando, Florida, USA
Distance from station: NE 24mi, 39km
Updated: Sun, 27-Nov-2022 11:53pm EST
Mostly cloudy
Mostly cloudy
 Wind from W
Wind: W 7 mph , 11 km/h
Temperature: 72°F , 22°C
Dew Point: 68°F , 20°C
Humidity: 88%
Clouds: Mostly cloudy
Visibility: 10 miles , 16 km
Cloud details: Partly cloudy 700 ft
Mostly cloudy 6000 ft
2022/11/28 04:53 KMCO 280453Z 28006KT 10SM SCT007 BKN060 22/20 RMK AO2 SLPNO T02170200 403000217 $
 
KLAL - Lakeland Regiona, Florida, USA
Distance from station: WSW 28mi, 46km
Updated: Mon, 28-Nov-2022 12:35am EST
Clear
Clear
 Wind from calm
Wind: Calm
Temperature: 68°F , 20°C
Dew Point: 68°F , 20°C
Humidity: 100%
Barometer: 30.01 inHg , 1016.3 hPa
Clouds: Clear
Visibility: 7 miles , 11 km
2022/11/28 05:35 KLAL 280535Z AUTO 00000KT 7SM CLR 20/20 A3001 RMK AO2 T02030203
KORL - Orlando, Florida, USA
Distance from station: NNE 31mi, 50km
Updated: Sun, 27-Nov-2022 11:53pm EST
Mostly cloudy
Mostly cloudy
 Wind from W
Wind: W 7 mph , 11 km/h
Temperature: 72°F , 22°C
Dew Point: 64°F , 18°C
Humidity: 78%
Barometer: 30.00 inHg , 1015.9 hPa
Clouds: Mostly cloudy
Visibility: 10 miles , 16 km
Cloud details: Mostly cloudy 6500 ft
2022/11/28 04:53 KORL 280453Z AUTO 27006KT 10SM BKN065 22/18 A3000 RMK AO2 SLP161 T02170183 402940211
 
KZPH - Zephyrhills, Florida, USA
Distance from station: W 33mi, 53km
Updated: Mon, 28-Nov-2022 12:15am EST
Mist, Clear
Mist, Clear
 Wind from calm
Wind: Calm
Temperature: 64°F , 18°C
Dew Point: 64°F , 18°C
Humidity: 100%
Barometer: 30.03 inHg , 1016.9 hPa
Summary: Mist
Clouds: Clear
Visibility: 2 1/2 miles , 4 km
2022/11/28 05:15 KZPH 280515Z AUTO 00000KT 2 1/2SM BR CLR 18/18 A3003 RMK A02 VIS 1 3/4V5 T01820182
KPCM - Plant City Muni, Florida, USA
Distance from station: WSW 36mi, 57km
Updated: Mon, 28-Nov-2022 12:15am EST
Clear
Clear
 Wind from calm
Wind: Calm
Barometer: 30.03 inHg , 1016.9 hPa
Clouds: Clear
Visibility: 7 miles , 11 km
2022/11/28 05:15 KPCM 280515Z AUTO 00000KT 7SM CLR A3003 RMK AO2
 
KVDF - Tampa/Vandenburg, Florida, USA
Distance from station: WSW 45mi, 73km
Updated: Tue, 15-Nov-2022 7:35am EST
NOT Current
Clear
Clear
 Wind from calm
Wind: Calm
Barometer: 30.11 inHg , 1019.6 hPa
Clouds: Clear
Visibility: 10 miles , 16 km
2022/11/15 12:35 KVDF 151235Z AUTO 00000KT 10SM CLR A3011 RMK AO2
KLEE - Leesburg, Florida, USA
Distance from station: NNW 46mi, 74km
Updated: Sun, 27-Nov-2022 11:53pm EST
Clear
Clear
 Wind from SSW
Wind: SSW 5 mph , 7 km/h
Temperature: 64°F , 18°C
Dew Point: 63°F , 17°C
Humidity: 94%
Barometer: 30.00 inHg , 1015.9 hPa
Clouds: Clear
Visibility: 10 miles , 16 km
2022/11/28 04:53 KLEE 280453Z AUTO 20004KT 10SM CLR 18/17 A3000 RMK AO2 SLP159 T01830172 402890183
 
KSFB - Sanford/Orlando, Florida, USA
Distance from station: NNE 47mi, 76km
Updated: Sun, 27-Nov-2022 11:53pm EST
Few Clouds
Few Clouds
 Wind from WSW
Wind: WSW 6 mph , 9 km/h
Temperature: 66°F , 19°C
Dew Point: 64°F , 18°C
Humidity: 94%
Barometer: 29.99 inHg , 1015.6 hPa
Clouds: Few Clouds
Visibility: 10 miles , 16 km
Cloud details: Few Clouds 7000 ft
2022/11/28 04:53 KSFB 280453Z 25005KT 10SM FEW070 19/18 A2999 RMK AO2 SLP155 T01940183 402940194